createdAt,value
2017-10-26T00:01:58.146Z,16.67
2017-10-26T00:04:28.655Z,11.90
2017-10-26T00:06:56.324Z,11.10
2017-10-26T00:09:24.530Z,13.02
2017-10-26T00:11:51.998Z,17.50
2017-10-26T00:14:19.710Z,21.98
2017-10-26T00:16:48.247Z,20.67
2017-10-26T00:19:15.727Z,18.33
2017-10-26T00:21:47.027Z,16.37
2017-10-26T00:24:14.646Z,16.42
2017-10-26T00:26:42.099Z,17.83
2017-10-26T00:29:09.688Z,14.10
2017-10-26T00:31:37.703Z,14.17
2017-10-26T00:34:05.751Z,18.93
2017-10-26T00:36:33.199Z,12.60
2017-10-26T00:39:01.670Z,14.58
2017-10-26T00:41:29.335Z,19.70
2017-10-26T00:43:57.555Z,19.13
2017-10-26T00:46:25.883Z,21.98
2017-10-26T00:48:53.322Z,17.90
2017-10-26T00:51:21.017Z,12.18
2017-10-26T00:53:48.511Z,14.07
2017-10-26T00:56:15.990Z,16.93
2017-10-26T00:58:43.463Z,41.43
2017-10-26T01:01:10.939Z,25.03
2017-10-26T01:03:39.992Z,22.02
2017-10-26T01:06:07.543Z,20.87
2017-10-26T01:08:34.996Z,20.97
2017-10-26T01:11:02.470Z,18.57
2017-10-26T01:13:29.962Z,13.27
2017-10-26T01:15:58.179Z,17.30
2017-10-26T01:18:25.662Z,20.35
2017-10-26T01:20:53.110Z,20.20
2017-10-26T01:23:20.588Z,13.30
2017-10-26T01:25:48.026Z,10.63
2017-10-26T01:28:15.510Z,11.77
2017-10-26T01:30:42.976Z,7.80
2017-10-26T01:33:12.139Z,8.27
2017-10-26T01:35:43.191Z,13.57
2017-10-26T01:38:10.661Z,11.90
2017-10-26T01:40:38.134Z,11.40
2017-10-26T01:43:05.643Z,9.13
2017-10-26T01:45:33.107Z,12.67
2017-10-26T01:48:02.092Z,9.52
2017-10-26T01:50:29.603Z,11.87
2017-10-26T01:52:57.068Z,16.63
2017-10-26T01:55:24.555Z,17.08
2017-10-26T01:57:52.012Z,10.57
2017-10-26T02:00:20.903Z,16.65
2017-10-26T02:02:48.409Z,13.27
2017-10-26T02:05:15.854Z,12.27
2017-10-26T02:07:43.328Z,12.73
2017-10-26T02:10:10.766Z,18.23
2017-10-26T02:12:39.179Z,14.47
2017-10-26T02:15:06.644Z,19.90
2017-10-26T02:17:34.162Z,13.13
2017-10-26T02:20:01.640Z,13.70
2017-10-26T02:22:30.419Z,11.57
2017-10-26T02:24:58.311Z,9.40
2017-10-26T02:27:25.898Z,12.40
2017-10-26T02:30:05.103Z,9.47
2017-10-26T02:32:32.544Z,8.10
2017-10-26T02:34:59.999Z,7.53
2017-10-26T02:37:30.617Z,6.10
2017-10-26T02:40:00.496Z,6.60
2017-10-26T02:42:28.190Z,10.27
2017-10-26T02:44:55.634Z,13.27
2017-10-26T02:47:24.101Z,11.20
2017-10-26T02:49:51.638Z,14.27
2017-10-26T02:52:19.350Z,12.50
2017-10-26T02:54:50.505Z,17.63
2017-10-26T02:57:18.009Z,15.40
2017-10-26T02:59:45.452Z,12.93
2017-10-26T03:02:13.690Z,11.45
2017-10-26T03:04:41.476Z,12.13
2017-10-26T03:07:12.100Z,8.17
2017-10-26T03:09:40.695Z,9.32
2017-10-26T03:12:09.089Z,10.00
2017-10-26T03:14:36.563Z,9.77
2017-10-26T03:17:04.023Z,17.02
2017-10-26T03:19:31.713Z,13.20
2017-10-26T03:21:59.167Z,12.07
2017-10-26T03:24:26.630Z,14.40
2017-10-26T03:26:54.878Z,16.10
2017-10-26T03:29:22.531Z,13.98
2017-10-26T03:31:50.302Z,12.60
2017-10-26T03:34:17.770Z,16.73
2017-10-26T03:36:46.077Z,18.12
2017-10-26T03:39:17.958Z,16.35
2017-10-26T03:41:45.627Z,17.03
2017-10-26T03:44:13.363Z,15.27
2017-10-26T03:46:40.914Z,14.40
2017-10-26T03:49:08.442Z,20.05
2017-10-26T03:51:36.338Z,17.87
2017-10-26T03:54:03.876Z,14.05
2017-10-26T03:56:31.348Z,19.60
2017-10-26T03:58:58.833Z,14.53
2017-10-26T04:01:26.787Z,15.82
2017-10-26T04:03:54.347Z,14.90
2017-10-26T04:06:21.839Z,17.30
2017-10-26T04:08:50.212Z,14.57
2017-10-26T04:11:17.671Z,16.50
2017-10-26T04:13:45.151Z,17.77
2017-10-26T04:16:12.629Z,17.50
2017-10-26T04:18:40.116Z,14.23
2017-10-26T04:21:07.571Z,22.50
2017-10-26T04:23:39.571Z,14.07
2017-10-26T04:26:07.020Z,16.40
2017-10-26T04:28:34.963Z,17.03
2017-10-26T04:31:02.443Z,17.58
2017-10-26T04:33:29.882Z,15.40
2017-10-26T04:35:57.369Z,24.63
2017-10-26T04:38:24.847Z,16.33
2017-10-26T04:40:52.995Z,19.23
2017-10-26T04:43:20.456Z,19.25
2017-10-26T04:45:47.931Z,15.13
2017-10-26T04:48:15.410Z,16.60
2017-10-26T04:50:43.351Z,18.37
2017-10-26T04:53:10.810Z,16.58
2017-10-26T04:55:38.296Z,16.17
2017-10-26T04:58:08.623Z,15.06
2017-10-26T05:00:37.462Z,18.37
2017-10-26T05:03:05.671Z,18.40
2017-10-26T05:05:33.224Z,18.85
2017-10-26T05:08:01.643Z,23.00
2017-10-26T05:10:29.094Z,19.73
2017-10-26T05:12:56.545Z,15.20
2017-10-26T05:15:24.057Z,15.00
2017-10-26T05:17:51.506Z,16.90
2017-10-26T05:20:19.004Z,20.17
2017-10-26T05:22:46.788Z,22.50
2017-10-26T05:25:18.558Z,19.55
2017-10-26T05:27:46.035Z,18.97
2017-10-26T05:30:13.754Z,17.17
2017-10-26T05:32:41.199Z,14.80
2017-10-26T05:35:08.710Z,18.30
2017-10-26T05:37:36.923Z,18.70
2017-10-26T05:40:04.842Z,19.85
2017-10-26T05:42:36.895Z,14.93
2017-10-26T05:45:05.301Z,16.30
2017-10-26T05:47:33.517Z,14.60
2017-10-26T05:50:00.999Z,16.70
2017-10-26T05:52:28.491Z,18.40
2017-10-26T05:54:55.947Z,15.40
2017-10-26T05:57:25.318Z,13.83
2017-10-26T05:59:52.819Z,19.15
2017-10-26T06:02:20.271Z,12.33
2017-10-26T06:04:47.740Z,19.70
2017-10-26T06:07:15.452Z,19.00
2017-10-26T06:09:44.423Z,19.90
2017-10-26T06:12:16.520Z,24.03
2017-10-26T06:14:44.195Z,25.10
2017-10-26T06:17:11.723Z,26.23
2017-10-26T06:19:39.175Z,23.60
2017-10-26T06:22:06.651Z,20.08
2017-10-26T06:24:34.655Z,23.70
2017-10-26T06:27:03.049Z,17.70
2017-10-26T06:29:30.494Z,19.00
2017-10-26T06:31:58.005Z,13.73
2017-10-26T06:34:25.468Z,18.07
2017-10-26T06:36:53.507Z,17.77
2017-10-26T06:39:20.986Z,26.20
2017-10-26T06:41:48.485Z,17.63
2017-10-26T06:44:15.968Z,14.43
2017-10-26T06:46:43.425Z,20.00
2017-10-26T06:49:12.362Z,19.00
2017-10-26T06:51:39.848Z,18.35
2017-10-26T06:54:07.351Z,15.33
2017-10-26T06:56:34.795Z,22.25
2017-10-26T06:59:02.287Z,21.80
2017-10-26T07:01:30.486Z,19.75
2017-10-26T07:03:57.939Z,14.35
2017-10-26T07:06:25.411Z,15.10
2017-10-26T07:08:53.325Z,16.17
2017-10-26T07:11:24.102Z,15.57
2017-10-26T07:13:51.578Z,16.10
2017-10-26T07:16:19.974Z,19.15
2017-10-26T07:18:47.451Z,23.37
2017-10-26T07:21:15.133Z,21.40
2017-10-26T07:23:42.635Z,18.63
2017-10-26T07:26:10.087Z,19.20
2017-10-26T07:28:37.563Z,14.87
2017-10-26T07:31:05.007Z,15.37
2017-10-26T07:33:32.636Z,18.50
2017-10-26T07:36:00.154Z,16.30
2017-10-26T07:38:29.371Z,22.13
2017-10-26T07:40:56.829Z,14.67
2017-10-26T07:43:24.406Z,21.20
2017-10-26T07:45:54.298Z,22.30
2017-10-26T07:48:21.760Z,21.37
2017-10-26T07:50:49.270Z,22.87
2017-10-26T07:53:17.230Z,24.27
2017-10-26T07:55:44.723Z,19.80
2017-10-26T07:58:12.183Z,23.63
2017-10-26T08:00:39.636Z,23.10
2017-10-26T08:03:07.135Z,23.90
2017-10-26T08:05:34.591Z,23.47
2017-10-26T08:08:02.056Z,24.57
2017-10-26T08:10:29.564Z,27.17
2017-10-26T08:12:57.028Z,28.03
2017-10-26T08:15:25.327Z,21.75
2017-10-26T08:17:52.791Z,20.08
2017-10-26T08:20:20.310Z,19.93
2017-10-26T08:22:47.879Z,20.27
2017-10-26T08:25:15.343Z,26.00
2017-10-26T08:27:47.547Z,17.23
2017-10-26T08:30:15.323Z,15.27
2017-10-26T08:32:43.023Z,17.33
2017-10-26T08:35:10.485Z,13.23
2017-10-26T08:37:38.004Z,14.30
2017-10-26T08:40:06.253Z,12.77
2017-10-26T08:42:34.179Z,14.10
2017-10-26T08:45:01.668Z,13.43
2017-10-26T08:47:29.125Z,15.13
2017-10-26T08:49:56.698Z,17.87
2017-10-26T08:52:24.227Z,13.53
2017-10-26T08:54:51.674Z,29.00
2017-10-26T08:57:19.163Z,14.95
2017-10-26T08:59:46.633Z,15.23
2017-10-26T09:02:14.524Z,16.10
2017-10-26T09:04:42.395Z,14.77
2017-10-26T09:07:09.875Z,14.90
2017-10-26T09:09:37.357Z,21.50
2017-10-26T09:12:04.864Z,22.20
2017-10-26T09:14:32.355Z,20.33
2017-10-26T09:17:00.671Z,20.70
2017-10-26T09:19:28.166Z,20.00
2017-10-26T09:21:56.811Z,23.75
2017-10-26T09:24:24.271Z,19.45
2017-10-26T09:26:51.750Z,24.33
2017-10-26T09:29:19.517Z,22.17
2017-10-26T09:31:47.244Z,24.25
2017-10-26T09:34:15.624Z,21.87
2017-10-26T09:36:43.127Z,22.00
2017-10-26T09:39:10.623Z,28.03
2017-10-26T09:41:38.083Z,27.85
2017-10-26T09:44:05.535Z,25.63
2017-10-26T09:46:37.531Z,26.62
2017-10-26T09:49:05.875Z,23.93
2017-10-26T09:51:34.586Z,38.73
2017-10-26T09:54:02.052Z,25.10
2017-10-26T09:56:29.499Z,28.10
2017-10-26T09:58:59.783Z,25.10
2017-10-26T10:01:27.275Z,20.83
2017-10-26T10:03:54.734Z,23.05
2017-10-26T10:06:22.179Z,21.50
2017-10-26T10:08:49.662Z,30.20
2017-10-26T10:11:17.118Z,20.73
2017-10-26T10:13:44.594Z,21.03
2017-10-26T10:16:18.382Z,23.48
2017-10-26T10:18:45.947Z,21.87
2017-10-26T10:21:13.935Z,21.58
2017-10-26T10:23:42.163Z,20.23
2017-10-26T10:26:09.647Z,30.40
2017-10-26T10:28:37.433Z,19.70
2017-10-26T10:31:05.658Z,21.47
2017-10-26T10:33:33.191Z,19.27
2017-10-26T10:36:01.631Z,19.37
2017-10-26T10:38:29.871Z,23.30
2017-10-26T10:40:57.563Z,20.10
2017-10-26T10:43:25.024Z,20.53
2017-10-26T10:45:52.479Z,18.93
2017-10-26T10:48:20.756Z,18.37
2017-10-26T10:50:48.224Z,21.47
2017-10-26T10:53:17.278Z,19.56
2017-10-26T10:55:44.766Z,20.67
2017-10-26T10:58:12.223Z,22.30
2017-10-26T11:00:42.740Z,20.93
2017-10-26T11:03:10.191Z,20.03
2017-10-26T11:05:38.491Z,21.40
2017-10-26T11:08:06.959Z,18.52
2017-10-26T11:10:34.446Z,20.73
2017-10-26T11:13:01.940Z,16.90
2017-10-26T11:15:33.019Z,20.85
2017-10-26T11:18:01.198Z,18.30
2017-10-26T11:20:28.698Z,23.57
2017-10-26T11:22:56.348Z,17.47
2017-10-26T11:25:23.841Z,15.63
2017-10-26T11:27:51.346Z,19.93
2017-10-26T11:30:20.555Z,17.53
2017-10-26T11:32:48.160Z,19.70
2017-10-26T11:35:16.046Z,16.43
2017-10-26T11:37:43.534Z,19.33
2017-10-26T11:40:10.986Z,20.13
2017-10-26T11:42:40.166Z,17.48
2017-10-26T11:45:08.392Z,16.48
2017-10-26T11:47:35.946Z,16.58
2017-10-26T11:50:04.498Z,15.13
2017-10-26T11:52:31.997Z,18.95
2017-10-26T11:54:59.500Z,15.30
2017-10-26T11:57:26.955Z,15.67
2017-10-26T11:59:54.442Z,15.30
2017-10-26T12:02:21.909Z,12.10
2017-10-26T12:04:49.442Z,16.23
2017-10-26T12:07:18.539Z,15.07
2017-10-26T12:09:46.032Z,17.23
2017-10-26T12:12:13.542Z,17.37
2017-10-26T12:14:42.699Z,16.13
2017-10-26T12:17:10.174Z,14.87
2017-10-26T12:19:37.655Z,16.47
2017-10-26T12:22:05.416Z,14.82
2017-10-26T12:24:32.877Z,13.77
2017-10-26T12:27:00.358Z,13.88
2017-10-26T12:29:27.815Z,15.57
2017-10-26T12:31:59.455Z,16.00
2017-10-26T12:34:26.904Z,17.33
2017-10-26T12:36:54.397Z,17.60
2017-10-26T12:39:21.896Z,21.58
2017-10-26T12:41:49.377Z,21.73
2017-10-26T12:44:16.818Z,25.80
2017-10-26T12:46:56.265Z,22.03
2017-10-26T12:49:23.769Z,22.08
2017-10-26T12:51:51.856Z,26.80
2017-10-26T12:54:19.332Z,23.27
2017-10-26T12:56:46.786Z,19.77
2017-10-26T12:59:14.279Z,22.17
2017-10-26T13:01:42.508Z,24.15
2017-10-26T13:04:09.967Z,20.60
2017-10-26T13:06:37.459Z,18.50
2017-10-26T13:09:06.138Z,19.87
2017-10-26T13:11:33.903Z,20.73
2017-10-26T13:14:01.390Z,21.50
2017-10-26T13:16:28.875Z,24.27
2017-10-26T13:18:56.622Z,19.93
2017-10-26T13:21:24.849Z,21.40
2017-10-26T13:23:52.311Z,24.43
2017-10-26T13:26:19.808Z,22.17
2017-10-26T13:28:47.283Z,28.25
2017-10-26T13:31:14.742Z,22.65
2017-10-26T13:33:42.223Z,21.12
2017-10-26T13:36:09.703Z,20.87
2017-10-26T13:38:37.197Z,19.07
2017-10-26T13:41:05.419Z,20.03
2017-10-26T13:43:32.902Z,20.07
2017-10-26T13:46:00.359Z,22.75
2017-10-26T13:48:27.877Z,21.40
2017-10-26T13:50:55.358Z,18.30
2017-10-26T13:53:22.830Z,20.83
2017-10-26T13:55:50.362Z,18.07
2017-10-26T13:58:17.836Z,19.83
2017-10-26T14:00:45.336Z,20.70
2017-10-26T14:03:13.067Z,19.70
2017-10-26T14:05:41.087Z,18.60
2017-10-26T14:08:08.649Z,24.77
2017-10-26T14:10:36.135Z,30.23
2017-10-26T14:13:04.378Z,22.17
2017-10-26T14:15:31.863Z,21.97
2017-10-26T14:18:00.965Z,23.33
2017-10-26T14:20:28.592Z,29.27
2017-10-26T14:22:56.337Z,24.23
2017-10-26T14:25:23.821Z,21.10
2017-10-26T14:27:51.306Z,26.30
2017-10-26T14:30:19.704Z,19.77
2017-10-26T14:32:47.180Z,19.40
2017-10-26T14:35:15.570Z,17.08
2017-10-26T14:37:44.715Z,19.60
2017-10-26T14:40:12.225Z,18.90
2017-10-26T14:42:39.693Z,19.35
2017-10-26T14:45:07.684Z,20.97
2017-10-26T14:47:35.173Z,19.00
2017-10-26T14:50:03.594Z,19.93
2017-10-26T14:52:31.044Z,17.47
2017-10-26T14:54:58.771Z,22.10
2017-10-26T14:57:26.420Z,22.00
2017-10-26T14:59:53.930Z,23.13
2017-10-26T15:02:21.403Z,20.40
2017-10-26T15:04:48.858Z,19.70
2017-10-26T15:07:21.863Z,23.38
2017-10-26T15:09:49.320Z,19.25
2017-10-26T15:12:17.484Z,21.02
2017-10-26T15:14:44.981Z,22.17
2017-10-26T15:17:12.467Z,20.80
2017-10-26T15:19:44.431Z,19.20
2017-10-26T15:22:15.836Z,19.73
2017-10-26T15:24:43.615Z,22.23
2017-10-26T15:27:11.334Z,22.97
2017-10-26T15:29:38.854Z,24.23
2017-10-26T15:32:06.345Z,27.87
2017-10-26T15:34:33.898Z,23.80
2017-10-26T15:37:07.343Z,24.80
2017-10-26T15:39:34.810Z,33.17
2017-10-26T15:42:03.517Z,24.55
2017-10-26T15:44:31.130Z,29.35
2017-10-26T15:46:58.721Z,23.90
2017-10-26T15:49:26.171Z,24.33
2017-10-26T15:51:53.651Z,24.07
2017-10-26T15:54:22.477Z,21.08
2017-10-26T15:56:49.936Z,23.95
2017-10-26T15:59:17.411Z,26.50
2017-10-26T16:01:44.914Z,22.58
2017-10-26T16:04:13.183Z,30.60
2017-10-26T16:06:44.463Z,19.23
2017-10-26T16:09:11.959Z,21.67
2017-10-26T16:11:39.582Z,20.42
2017-10-26T16:14:07.043Z,18.20
2017-10-26T16:16:34.499Z,20.63
2017-10-26T16:19:02.135Z,20.67
2017-10-26T16:21:30.206Z,15.30
2017-10-26T16:24:01.632Z,19.60
2017-10-26T16:26:29.403Z,24.70
2017-10-26T16:28:57.473Z,17.00
2017-10-26T16:31:25.555Z,15.16
2017-10-26T16:33:53.175Z,13.43
2017-10-26T16:36:35.830Z,14.33
2017-10-26T16:39:03.322Z,26.47
2017-10-26T16:41:30.782Z,19.20
2017-10-26T16:43:58.311Z,17.40
2017-10-26T16:46:27.474Z,16.17
2017-10-26T16:48:54.960Z,19.70
2017-10-26T16:51:23.211Z,14.90
2017-10-26T16:53:51.216Z,18.20
2017-10-26T16:56:18.854Z,15.30
2017-10-26T16:58:46.326Z,13.53
2017-10-26T17:01:14.198Z,15.80
2017-10-26T17:03:41.701Z,21.57
2017-10-26T17:06:09.164Z,16.40
2017-10-26T17:08:36.735Z,19.03
2017-10-26T17:11:05.128Z,13.20
2017-10-26T17:13:32.580Z,15.60
2017-10-26T17:16:00.096Z,13.67
2017-10-26T17:18:27.569Z,21.00
2017-10-26T17:20:55.035Z,14.95
2017-10-26T17:23:22.903Z,12.00
2017-10-26T17:25:50.471Z,13.27
2017-10-26T17:28:19.364Z,18.08
2017-10-26T17:30:46.848Z,13.55
2017-10-26T17:33:14.812Z,15.33
2017-10-26T17:35:42.289Z,14.23
2017-10-26T17:38:13.264Z,15.33
2017-10-26T17:40:40.967Z,16.65
2017-10-26T17:43:08.439Z,16.00
2017-10-26T17:45:35.971Z,16.40
2017-10-26T17:48:03.581Z,24.50
2017-10-26T17:50:31.044Z,19.20
2017-10-26T17:52:58.519Z,18.93
2017-10-26T17:55:27.544Z,18.80
2017-10-26T17:57:55.798Z,13.07
2017-10-26T18:00:23.273Z,19.60
2017-10-26T18:02:51.670Z,12.00
2017-10-26T18:05:19.911Z,14.65
2017-10-26T18:07:51.082Z,14.40
2017-10-26T18:10:19.337Z,16.60
2017-10-26T18:12:46.831Z,17.87
2017-10-26T18:15:14.293Z,16.70
2017-10-26T18:17:41.818Z,15.03
2017-10-26T18:20:09.298Z,17.70
2017-10-26T18:22:40.738Z,16.83
2017-10-26T18:25:08.199Z,19.50
2017-10-26T18:27:36.141Z,15.47
2017-10-26T18:30:03.680Z,14.77
2017-10-26T18:32:31.437Z,18.50
2017-10-26T18:34:58.918Z,13.40
2017-10-26T18:37:27.306Z,18.53
2017-10-26T18:39:57.502Z,14.45
2017-10-26T18:42:25.747Z,15.00
2017-10-26T18:44:53.243Z,14.00
2017-10-26T18:47:21.542Z,18.43
2017-10-26T18:49:49.046Z,12.73
2017-10-26T18:52:16.515Z,13.17
2017-10-26T18:54:44.911Z,13.87
2017-10-26T18:57:12.451Z,13.97
2017-10-26T18:59:39.959Z,20.27
2017-10-26T19:02:07.442Z,20.90
2017-10-26T19:04:34.908Z,17.45
2017-10-26T19:07:02.416Z,20.50
2017-10-26T19:09:33.530Z,20.70
2017-10-26T19:12:01.202Z,18.27
2017-10-26T19:14:29.727Z,19.30
2017-10-26T19:16:58.967Z,15.20
2017-10-26T19:19:26.483Z,19.67
2017-10-26T19:21:54.754Z,22.50
2017-10-26T19:24:22.232Z,15.18
2017-10-26T19:26:49.756Z,19.53
2017-10-26T19:29:18.616Z,17.67
2017-10-26T19:31:46.117Z,18.83
2017-10-26T19:34:13.854Z,16.90
2017-10-26T19:36:41.354Z,17.30
2017-10-26T19:39:12.485Z,19.02
2017-10-26T19:41:39.935Z,20.12
2017-10-26T19:44:07.394Z,19.98
2017-10-26T19:46:35.505Z,19.05
2017-10-26T19:49:03.079Z,16.43
2017-10-26T19:51:31.041Z,20.60
2017-10-26T19:54:02.754Z,18.80
2017-10-26T19:56:30.254Z,18.17
2017-10-26T19:58:57.904Z,17.83
2017-10-26T20:01:25.396Z,19.40
2017-10-26T20:03:52.886Z,17.33
2017-10-26T20:06:20.676Z,15.27
2017-10-26T20:08:48.174Z,18.20
2017-10-26T20:11:16.284Z,18.08
2017-10-26T20:13:43.767Z,20.47
2017-10-26T20:16:11.362Z,15.13
2017-10-26T20:18:38.915Z,18.40
2017-10-26T20:21:06.395Z,18.40
2017-10-26T20:23:34.681Z,17.30
2017-10-26T20:26:02.170Z,20.10
2017-10-26T20:28:29.673Z,18.92
2017-10-26T20:30:57.158Z,20.50
2017-10-26T20:33:24.741Z,18.33
2017-10-26T20:35:52.234Z,15.93
2017-10-26T20:38:19.711Z,17.00
2017-10-26T20:40:47.349Z,16.47
2017-10-26T20:43:14.857Z,20.97
2017-10-26T20:45:42.623Z,18.60
2017-10-26T20:48:10.085Z,14.57
2017-10-26T20:50:43.899Z,15.98
2017-10-26T20:53:17.696Z,19.48
2017-10-26T20:55:58.334Z,19.73
2017-10-26T20:58:31.919Z,20.08
2017-10-26T21:01:05.279Z,19.00
2017-10-26T21:03:39.402Z,18.58
2017-10-26T21:06:12.507Z,23.97
2017-10-26T21:08:45.550Z,19.30
2017-10-26T21:11:22.418Z,24.00
2017-10-26T21:13:55.610Z,20.77
2017-10-26T21:16:23.729Z,21.33
2017-10-26T21:18:52.119Z,20.05
2017-10-26T21:21:20.556Z,21.40
2017-10-26T21:23:48.011Z,23.10
2017-10-26T21:26:15.461Z,21.27
2017-10-26T21:28:43.216Z,23.53
2017-10-26T21:31:12.274Z,24.77
2017-10-26T21:33:45.327Z,20.63
2017-10-26T21:36:13.555Z,25.53
2017-10-26T21:38:41.939Z,25.08
2017-10-26T21:41:09.604Z,19.07
2017-10-26T21:43:37.116Z,36.20
2017-10-26T21:46:04.572Z,23.40
2017-10-26T21:48:32.095Z,26.25
2017-10-26T21:51:00.068Z,31.95
2017-10-26T21:53:28.050Z,21.20
2017-10-26T21:55:58.764Z,25.65
2017-10-26T21:58:26.844Z,23.97
2017-10-26T22:00:54.579Z,19.63
2017-10-26T22:03:22.394Z,23.57
2017-10-26T22:05:49.892Z,25.05
2017-10-26T22:08:17.612Z,28.20
2017-10-26T22:10:46.255Z,26.10
2017-10-26T22:13:13.726Z,22.90
2017-10-26T22:15:41.482Z,24.17
2017-10-26T22:18:10.828Z,29.85
2017-10-26T22:20:38.406Z,23.50
2017-10-26T22:23:05.906Z,29.75
2017-10-26T22:25:33.417Z,26.37
2017-10-26T22:28:07.312Z,24.40
2017-10-26T22:30:36.395Z,23.73
2017-10-26T22:33:04.082Z,23.30
2017-10-26T22:35:31.555Z,19.87
2017-10-26T22:37:59.751Z,24.52
2017-10-26T22:40:27.244Z,29.23
2017-10-26T22:42:55.496Z,24.12
2017-10-26T22:45:22.963Z,24.80
2017-10-26T22:47:50.510Z,26.37
2017-10-26T22:50:17.974Z,27.63
2017-10-26T22:52:45.634Z,30.42
2017-10-26T22:55:13.822Z,34.50
2017-10-26T22:57:42.047Z,28.70
2017-10-26T23:00:09.512Z,29.83
2017-10-26T23:02:37.018Z,27.25
2017-10-26T23:05:04.763Z,43.78
2017-10-26T23:07:32.855Z,31.87
2017-10-26T23:10:00.328Z,34.73
2017-10-26T23:12:39.425Z,37.10
2017-10-26T23:15:06.884Z,32.07
2017-10-26T23:17:34.439Z,36.67
2017-10-26T23:20:01.916Z,35.47
2017-10-26T23:22:30.139Z,33.30
2017-10-26T23:24:58.575Z,33.95
2017-10-26T23:27:26.220Z,35.47
2017-10-26T23:29:53.676Z,32.33
2017-10-26T23:32:21.167Z,33.85
2017-10-26T23:34:48.637Z,34.67
2017-10-26T23:37:16.090Z,34.53
2017-10-26T23:39:44.363Z,36.78
2017-10-26T23:42:12.147Z,35.42
2017-10-26T23:44:39.595Z,40.50
2017-10-26T23:47:07.079Z,38.77
2017-10-26T23:49:35.043Z,35.50
2017-10-26T23:52:02.531Z,37.60
2017-10-26T23:54:31.031Z,40.93
2017-10-26T23:56:58.535Z,42.42
2017-10-26T23:59:26.046Z,32.60
